sensor_id;sensor_type;location;lat;lon;timestamp;temperature;humidity
48988;DHT22;34799;51.440;-2.534;2023-04-25T00:00:04;7.80;99.90
48988;DHT22;34799;51.440;-2.534;2023-04-25T00:02:39;7.70;99.90
48988;DHT22;34799;51.440;-2.534;2023-04-25T00:05:07;7.60;99.90
48988;DHT22;34799;51.440;-2.534;2023-04-25T00:07:35;7.60;99.90
48988;DHT22;34799;51.440;-2.534;2023-04-25T00:10:03;7.50;99.90
48988;DHT22;34799;51.440;-2.534;2023-04-25T00:12:30;7.50;99.90
48988;DHT22;34799;51.440;-2.534;2023-04-25T00:14:57;7.50;99.90
48988;DHT22;34799;51.440;-2.534;2023-04-25T00:17:26;7.40;99.90
48988;DHT22;34799;51.440;-2.534;2023-04-25T00:19:54;7.30;99.90
48988;DHT22;34799;51.440;-2.534;2023-04-25T00:22:21;7.30;99.90
48988;DHT22;34799;51.440;-2.534;2023-04-25T00:24:48;7.30;99.90
48988;DHT22;34799;51.440;-2.534;2023-04-25T00:27:15;7.30;99.90
48988;DHT22;34799;51.440;-2.534;2023-04-25T00:29:42;7.20;99.90
48988;DHT22;34799;51.440;-2.534;2023-04-25T00:32:09;7.20;99.90
48988;DHT22;34799;51.440;-2.534;2023-04-25T00:34:36;7.30;99.90
48988;DHT22;34799;51.440;-2.534;2023-04-25T00:37:05;7.30;99.90
48988;DHT22;34799;51.440;-2.534;2023-04-25T00:39:32;7.40;99.90
48988;DHT22;34799;51.440;-2.534;2023-04-25T00:42:00;7.40;99.90
48988;DHT22;34799;51.440;-2.534;2023-04-25T00:44:30;7.40;99.90
48988;DHT22;34799;51.440;-2.534;2023-04-25T00:46:59;7.30;99.90
48988;DHT22;34799;51.440;-2.534;2023-04-25T00:49:27;7.40;99.90
48988;DHT22;34799;51.440;-2.534;2023-04-25T00:51:54;7.30;99.90
48988;DHT22;34799;51.440;-2.534;2023-04-25T00:54:21;7.40;99.90
48988;DHT22;34799;51.440;-2.534;2023-04-25T00:56:49;7.30;99.90
48988;DHT22;34799;51.440;-2.534;2023-04-25T00:59:17;7.40;99.90
48988;DHT22;34799;51.440;-2.534;2023-04-25T01:01:46;7.40;99.90
48988;DHT22;34799;51.440;-2.534;2023-04-25T01:04:13;7.80;99.90
48988;DHT22;34799;51.440;-2.534;2023-04-25T01:06:40;7.40;99.90
48988;DHT22;34799;51.440;-2.534;2023-04-25T01:09:07;7.40;99.90
48988;DHT22;34799;51.440;-2.534;2023-04-25T01:11:35;7.50;99.90
48988;DHT22;34799;51.440;-2.534;2023-04-25T01:14:02;7.60;99.90
48988;DHT22;34799;51.440;-2.534;2023-04-25T01:16:29;7.60;99.90
48988;DHT22;34799;51.440;-2.534;2023-04-25T01:18:58;7.60;99.90
48988;DHT22;34799;51.440;-2.534;2023-04-25T01:21:25;7.60;99.90
48988;DHT22;34799;51.440;-2.534;2023-04-25T01:23:54;7.50;99.90
48988;DHT22;34799;51.440;-2.534;2023-04-25T01:26:22;7.50;99.90
48988;DHT22;34799;51.440;-2.534;2023-04-25T01:28:50;7.40;99.90
48988;DHT22;34799;51.440;-2.534;2023-04-25T01:31:18;7.40;99.90
48988;DHT22;34799;51.440;-2.534;2023-04-25T01:33:46;7.40;99.90
48988;DHT22;34799;51.440;-2.534;2023-04-25T01:36:14;7.40;99.90
48988;DHT22;34799;51.440;-2.534;2023-04-25T01:38:42;10.50;99.90
48988;DHT22;34799;51.440;-2.534;2023-04-25T01:41:12;7.40;99.90
48988;DHT22;34799;51.440;-2.534;2023-04-25T01:43:40;7.40;99.90
48988;DHT22;34799;51.440;-2.534;2023-04-25T01:46:07;7.40;99.90
48988;DHT22;34799;51.440;-2.534;2023-04-25T01:48:34;7.40;99.90
48988;DHT22;34799;51.440;-2.534;2023-04-25T01:51:01;7.40;99.90
48988;DHT22;34799;51.440;-2.534;2023-04-25T01:53:29;7.40;99.90
48988;DHT22;34799;51.440;-2.534;2023-04-25T01:55:59;7.40;99.90
48988;DHT22;34799;51.440;-2.534;2023-04-25T01:58:30;7.20;99.90
48988;DHT22;34799;51.440;-2.534;2023-04-25T02:01:18;7.20;99.90
48988;DHT22;34799;51.440;-2.534;2023-04-25T02:03:56;7.10;99.90
48988;DHT22;34799;51.440;-2.534;2023-04-25T02:06:29;7.00;99.90
48988;DHT22;34799;51.440;-2.534;2023-04-25T02:08:57;7.00;99.90
48988;DHT22;34799;51.440;-2.534;2023-04-25T02:11:24;7.00;99.90
48988;DHT22;34799;51.440;-2.534;2023-04-25T02:14:19;7.90;99.90
48988;DHT22;34799;51.440;-2.534;2023-04-25T02:17:09;7.10;99.90
48988;DHT22;34799;51.440;-2.534;2023-04-25T02:19:37;7.10;99.90
48988;DHT22;34799;51.440;-2.534;2023-04-25T02:22:04;7.20;99.90
48988;DHT22;34799;51.440;-2.534;2023-04-25T02:24:31;7.20;99.90
48988;DHT22;34799;51.440;-2.534;2023-04-25T02:27:02;7.30;99.90
48988;DHT22;34799;51.440;-2.534;2023-04-25T02:29:29;7.30;99.90
48988;DHT22;34799;51.440;-2.534;2023-04-25T02:31:56;8.10;99.90
48988;DHT22;34799;51.440;-2.534;2023-04-25T02:34:25;7.30;99.90
48988;DHT22;34799;51.440;-2.534;2023-04-25T02:36:52;7.40;99.90
48988;DHT22;34799;51.440;-2.534;2023-04-25T02:39:19;7.40;99.90
48988;DHT22;34799;51.440;-2.534;2023-04-25T02:41:49;7.40;99.90
48988;DHT22;34799;51.440;-2.534;2023-04-25T02:44:16;7.40;99.90
48988;DHT22;34799;51.440;-2.534;2023-04-25T02:46:44;7.40;99.90
48988;DHT22;34799;51.440;-2.534;2023-04-25T02:49:11;8.80;99.90
48988;DHT22;34799;51.440;-2.534;2023-04-25T02:51:38;7.40;99.90
48988;DHT22;34799;51.440;-2.534;2023-04-25T02:54:05;7.40;99.90
48988;DHT22;34799;51.440;-2.534;2023-04-25T02:56:37;7.40;99.90
48988;DHT22;34799;51.440;-2.534;2023-04-25T02:59:10;7.30;99.90
48988;DHT22;34799;51.440;-2.534;2023-04-25T03:01:37;7.30;99.90
48988;DHT22;34799;51.440;-2.534;2023-04-25T03:04:04;7.30;99.90
48988;DHT22;34799;51.440;-2.534;2023-04-25T03:06:31;7.20;99.90
48988;DHT22;34799;51.440;-2.534;2023-04-25T03:08:58;7.20;99.90
48988;DHT22;34799;51.440;-2.534;2023-04-25T03:11:26;7.10;99.90
48988;DHT22;34799;51.440;-2.534;2023-04-25T03:13:53;7.10;99.90
48988;DHT22;34799;51.440;-2.534;2023-04-25T03:16:23;7.00;99.90
48988;DHT22;34799;51.440;-2.534;2023-04-25T03:18:50;7.00;99.90
48988;DHT22;34799;51.440;-2.534;2023-04-25T03:21:17;6.90;99.90
48988;DHT22;34799;51.440;-2.534;2023-04-25T03:23:44;6.80;99.90
48988;DHT22;34799;51.440;-2.534;2023-04-25T03:26:11;6.80;99.90
48988;DHT22;34799;51.440;-2.534;2023-04-25T03:28:38;7.50;99.90
48988;DHT22;34799;51.440;-2.534;2023-04-25T03:31:06;6.80;99.90
48988;DHT22;34799;51.440;-2.534;2023-04-25T03:33:35;6.80;99.90
48988;DHT22;34799;51.440;-2.534;2023-04-25T03:36:03;6.70;99.90
48988;DHT22;34799;51.440;-2.534;2023-04-25T03:38:30;6.70;99.90
48988;DHT22;34799;51.440;-2.534;2023-04-25T03:40:57;6.60;99.90
48988;DHT22;34799;51.440;-2.534;2023-04-25T03:43:45;6.60;99.90
48988;DHT22;34799;51.440;-2.534;2023-04-25T03:46:15;6.80;99.90
48988;DHT22;34799;51.440;-2.534;2023-04-25T03:48:42;9.50;99.90
48988;DHT22;34799;51.440;-2.534;2023-04-25T03:51:15;6.60;99.90
48988;DHT22;34799;51.440;-2.534;2023-04-25T03:53:44;6.60;99.90
48988;DHT22;34799;51.440;-2.534;2023-04-25T03:56:14;6.50;99.90
48988;DHT22;34799;51.440;-2.534;2023-04-25T03:58:44;6.40;99.90
48988;DHT22;34799;51.440;-2.534;2023-04-25T04:01:13;6.40;99.90
48988;DHT22;34799;51.440;-2.534;2023-04-25T04:03:40;6.40;99.90
48988;DHT22;34799;51.440;-2.534;2023-04-25T04:06:08;6.90;99.90
48988;DHT22;34799;51.440;-2.534;2023-04-25T04:08:39;6.40;99.90
48988;DHT22;34799;51.440;-2.534;2023-04-25T04:11:08;6.40;99.90
48988;DHT22;34799;51.440;-2.534;2023-04-25T04:13:36;6.30;99.90
48988;DHT22;34799;51.440;-2.534;2023-04-25T04:16:05;6.30;99.90
48988;DHT22;34799;51.440;-2.534;2023-04-25T04:18:32;6.30;99.90
48988;DHT22;34799;51.440;-2.534;2023-04-25T04:21:01;6.30;99.90
48988;DHT22;34799;51.440;-2.534;2023-04-25T04:23:32;6.30;99.90
48988;DHT22;34799;51.440;-2.534;2023-04-25T04:26:00;6.30;99.90
48988;DHT22;34799;51.440;-2.534;2023-04-25T04:29:01;6.30;99.90
48988;DHT22;34799;51.440;-2.534;2023-04-25T04:31:48;6.20;99.90
48988;DHT22;34799;51.440;-2.534;2023-04-25T04:34:16;6.20;99.90
48988;DHT22;34799;51.440;-2.534;2023-04-25T04:36:47;6.40;99.90
48988;DHT22;34799;51.440;-2.534;2023-04-25T04:39:15;6.20;99.90
48988;DHT22;34799;51.440;-2.534;2023-04-25T04:41:54;6.20;99.90
48988;DHT22;34799;51.440;-2.534;2023-04-25T04:44:51;6.10;99.90
48988;DHT22;34799;51.440;-2.534;2023-04-25T04:47:36;6.10;99.90
48988;DHT22;34799;51.440;-2.534;2023-04-25T04:50:22;6.10;99.90
48988;DHT22;34799;51.440;-2.534;2023-04-25T04:53:05;6.80;99.90
48988;DHT22;34799;51.440;-2.534;2023-04-25T04:55:37;6.00;99.90
48988;DHT22;34799;51.440;-2.534;2023-04-25T04:58:24;6.00;99.90
48988;DHT22;34799;51.440;-2.534;2023-04-25T05:01:12;6.00;99.90
48988;DHT22;34799;51.440;-2.534;2023-04-25T05:03:54;5.90;99.90
48988;DHT22;34799;51.440;-2.534;2023-04-25T05:06:46;5.90;99.90
48988;DHT22;34799;51.440;-2.534;2023-04-25T05:09:33;5.80;99.90
48988;DHT22;34799;51.440;-2.534;2023-04-25T05:12:08;5.80;99.90
48988;DHT22;34799;51.440;-2.534;2023-04-25T05:14:57;5.70;99.90
48988;DHT22;34799;51.440;-2.534;2023-04-25T05:17:31;5.70;99.90
48988;DHT22;34799;51.440;-2.534;2023-04-25T05:20:22;9.10;99.90
48988;DHT22;34799;51.440;-2.534;2023-04-25T05:23:02;5.70;99.90
48988;DHT22;34799;51.440;-2.534;2023-04-25T05:26:00;5.70;99.90
48988;DHT22;34799;51.440;-2.534;2023-04-25T05:28:44;5.70;99.90
48988;DHT22;34799;51.440;-2.534;2023-04-25T05:31:32;7.10;99.90
48988;DHT22;34799;51.440;-2.534;2023-04-25T05:34:04;5.70;99.90
48988;DHT22;34799;51.440;-2.534;2023-04-25T05:36:49;5.70;99.90
48988;DHT22;34799;51.440;-2.534;2023-04-25T05:39:17;5.70;99.90
48988;DHT22;34799;51.440;-2.534;2023-04-25T05:42:07;5.80;99.90
48988;DHT22;34799;51.440;-2.534;2023-04-25T05:44:49;5.80;99.90
48988;DHT22;34799;51.440;-2.534;2023-04-25T05:47:49;5.80;99.90
48988;DHT22;34799;51.440;-2.534;2023-04-25T05:50:26;5.80;99.90
48988;DHT22;34799;51.440;-2.534;2023-04-25T05:53:23;6.30;99.90
48988;DHT22;34799;51.440;-2.534;2023-04-25T05:55:59;5.80;99.90
48988;DHT22;34799;51.440;-2.534;2023-04-25T05:58:27;5.80;99.90
48988;DHT22;34799;51.440;-2.534;2023-04-25T06:00:54;5.80;99.90
48988;DHT22;34799;51.440;-2.534;2023-04-25T06:03:22;5.80;99.90
48988;DHT22;34799;51.440;-2.534;2023-04-25T06:05:49;5.80;99.90
48988;DHT22;34799;51.440;-2.534;2023-04-25T06:08:19;5.90;99.90
48988;DHT22;34799;51.440;-2.534;2023-04-25T06:10:46;6.00;99.90
48988;DHT22;34799;51.440;-2.534;2023-04-25T06:13:13;6.00;99.90
48988;DHT22;34799;51.440;-2.534;2023-04-25T06:15:40;6.00;99.90
48988;DHT22;34799;51.440;-2.534;2023-04-25T06:18:07;6.10;99.90
48988;DHT22;34799;51.440;-2.534;2023-04-25T06:20:34;6.10;99.90
48988;DHT22;34799;51.440;-2.534;2023-04-25T06:23:02;6.20;99.90
48988;DHT22;34799;51.440;-2.534;2023-04-25T06:25:44;6.30;99.90
48988;DHT22;34799;51.440;-2.534;2023-04-25T06:28:11;6.30;99.90
48988;DHT22;34799;51.440;-2.534;2023-04-25T06:30:41;6.30;99.90
48988;DHT22;34799;51.440;-2.534;2023-04-25T06:33:12;6.30;99.90
48988;DHT22;34799;51.440;-2.534;2023-04-25T06:35:40;6.90;99.90
48988;DHT22;34799;51.440;-2.534;2023-04-25T06:38:11;6.70;99.90
48988;DHT22;34799;51.440;-2.534;2023-04-25T06:40:40;6.40;99.90
48988;DHT22;34799;51.440;-2.534;2023-04-25T06:43:10;6.40;99.90
48988;DHT22;34799;51.440;-2.534;2023-04-25T06:45:58;6.40;99.90
48988;DHT22;34799;51.440;-2.534;2023-04-25T06:48:30;6.30;99.90
48988;DHT22;34799;51.440;-2.534;2023-04-25T06:50:58;6.40;99.90
48988;DHT22;34799;51.440;-2.534;2023-04-25T06:53:25;6.40;99.90
48988;DHT22;34799;51.440;-2.534;2023-04-25T06:55:58;6.40;99.90
48988;DHT22;34799;51.440;-2.534;2023-04-25T06:58:30;6.50;99.90
48988;DHT22;34799;51.440;-2.534;2023-04-25T07:01:26;6.50;99.90
48988;DHT22;34799;51.440;-2.534;2023-04-25T07:03:54;6.50;99.90
48988;DHT22;34799;51.440;-2.534;2023-04-25T07:06:22;6.50;99.90
48988;DHT22;34799;51.440;-2.534;2023-04-25T07:08:49;6.40;99.90
48988;DHT22;34799;51.440;-2.534;2023-04-25T07:11:17;6.50;99.90
48988;DHT22;34799;51.440;-2.534;2023-04-25T07:13:44;6.50;99.90
48988;DHT22;34799;51.440;-2.534;2023-04-25T07:16:13;6.50;99.90
48988;DHT22;34799;51.440;-2.534;2023-04-25T07:18:40;6.40;99.90
48988;DHT22;34799;51.440;-2.534;2023-04-25T07:21:08;6.40;99.90
48988;DHT22;34799;51.440;-2.534;2023-04-25T07:23:36;6.40;99.90
48988;DHT22;34799;51.440;-2.534;2023-04-25T07:26:09;6.30;99.90
48988;DHT22;34799;51.440;-2.534;2023-04-25T07:28:43;6.40;99.90
48988;DHT22;34799;51.440;-2.534;2023-04-25T07:31:11;6.70;99.90
48988;DHT22;34799;51.440;-2.534;2023-04-25T07:33:38;6.80;99.90
48988;DHT22;34799;51.440;-2.534;2023-04-25T07:36:05;8.20;99.90
48988;DHT22;34799;51.440;-2.534;2023-04-25T07:38:32;6.80;99.90
48988;DHT22;34799;51.440;-2.534;2023-04-25T07:41:02;6.90;99.90
48988;DHT22;34799;51.440;-2.534;2023-04-25T07:43:30;6.90;99.90
48988;DHT22;34799;51.440;-2.534;2023-04-25T07:45:58;6.90;99.90
48988;DHT22;34799;51.440;-2.534;2023-04-25T07:48:29;6.90;99.90
48988;DHT22;34799;51.440;-2.534;2023-04-25T07:50:57;6.90;99.90
48988;DHT22;34799;51.440;-2.534;2023-04-25T07:53:24;6.80;99.90
48988;DHT22;34799;51.440;-2.534;2023-04-25T07:55:57;6.80;99.90
48988;DHT22;34799;51.440;-2.534;2023-04-25T07:58:24;6.90;99.90
48988;DHT22;34799;51.440;-2.534;2023-04-25T08:00:59;7.00;99.90
48988;DHT22;34799;51.440;-2.534;2023-04-25T08:03:45;7.00;99.90
48988;DHT22;34799;51.440;-2.534;2023-04-25T08:06:21;7.10;99.90
48988;DHT22;34799;51.440;-2.534;2023-04-25T08:08:57;7.20;99.90
48988;DHT22;34799;51.440;-2.534;2023-04-25T08:11:32;7.30;99.90
48988;DHT22;34799;51.440;-2.534;2023-04-25T08:13:59;7.30;99.90
48988;DHT22;34799;51.440;-2.534;2023-04-25T08:16:26;7.50;99.90
48988;DHT22;34799;51.440;-2.534;2023-04-25T08:18:53;7.50;99.90
48988;DHT22;34799;51.440;-2.534;2023-04-25T08:21:21;7.60;99.90
48988;DHT22;34799;51.440;-2.534;2023-04-25T08:23:49;7.60;99.90
48988;DHT22;34799;51.440;-2.534;2023-04-25T08:26:25;7.70;99.90
48988;DHT22;34799;51.440;-2.534;2023-04-25T08:28:53;7.70;99.90
48988;DHT22;34799;51.440;-2.534;2023-04-25T08:31:21;7.70;99.90
48988;DHT22;34799;51.440;-2.534;2023-04-25T08:33:54;8.40;99.90
48988;DHT22;34799;51.440;-2.534;2023-04-25T08:36:30;7.80;99.90
48988;DHT22;34799;51.440;-2.534;2023-04-25T08:39:04;7.90;99.90
48988;DHT22;34799;51.440;-2.534;2023-04-25T08:41:38;7.90;99.90
48988;DHT22;34799;51.440;-2.534;2023-04-25T08:44:07;8.00;99.90
48988;DHT22;34799;51.440;-2.534;2023-04-25T08:46:40;8.00;99.90
48988;DHT22;34799;51.440;-2.534;2023-04-25T08:49:24;8.10;99.90
48988;DHT22;34799;51.440;-2.534;2023-04-25T08:51:53;8.20;99.90
48988;DHT22;34799;51.440;-2.534;2023-04-25T08:54:23;8.30;99.90
48988;DHT22;34799;51.440;-2.534;2023-04-25T08:57:02;8.20;99.90
48988;DHT22;34799;51.440;-2.534;2023-04-25T08:59:31;8.40;99.90
48988;DHT22;34799;51.440;-2.534;2023-04-25T09:02:00;8.60;99.90
48988;DHT22;34799;51.440;-2.534;2023-04-25T09:04:31;8.80;99.90
48988;DHT22;34799;51.440;-2.534;2023-04-25T09:06:58;8.80;99.90
48988;DHT22;34799;51.440;-2.534;2023-04-25T09:09:26;8.90;99.90
48988;DHT22;34799;51.440;-2.534;2023-04-25T09:11:54;9.00;99.90
48988;DHT22;34799;51.440;-2.534;2023-04-25T09:14:24;9.00;99.90
48988;DHT22;34799;51.440;-2.534;2023-04-25T09:17:04;8.90;99.90
48988;DHT22;34799;51.440;-2.534;2023-04-25T09:19:37;8.90;99.90
48988;DHT22;34799;51.440;-2.534;2023-04-25T09:22:22;9.60;99.90
48988;DHT22;34799;51.440;-2.534;2023-04-25T09:24:50;8.90;99.90
48988;DHT22;34799;51.440;-2.534;2023-04-25T09:27:21;10.00;99.90
48988;DHT22;34799;51.440;-2.534;2023-04-25T09:30:03;8.80;99.90
48988;DHT22;34799;51.440;-2.534;2023-04-25T09:32:48;8.80;99.90
48988;DHT22;34799;51.440;-2.534;2023-04-25T09:35:24;8.80;99.90
48988;DHT22;34799;51.440;-2.534;2023-04-25T09:37:53;9.00;99.90
48988;DHT22;34799;51.440;-2.534;2023-04-25T09:40:45;9.00;99.90
48988;DHT22;34799;51.440;-2.534;2023-04-25T09:43:25;9.10;99.90
48988;DHT22;34799;51.440;-2.534;2023-04-25T09:45:54;9.20;99.90
48988;DHT22;34799;51.440;-2.534;2023-04-25T09:48:27;9.20;99.90
48988;DHT22;34799;51.440;-2.534;2023-04-25T09:51:13;10.10;99.90
48988;DHT22;34799;51.440;-2.534;2023-04-25T09:53:44;9.30;99.90
48988;DHT22;34799;51.440;-2.534;2023-04-25T09:56:38;9.10;99.90
48988;DHT22;34799;51.440;-2.534;2023-04-25T09:59:08;9.10;99.90
48988;DHT22;34799;51.440;-2.534;2023-04-25T10:01:40;9.20;99.90
48988;DHT22;34799;51.440;-2.534;2023-04-25T10:04:24;9.40;99.90
48988;DHT22;34799;51.440;-2.534;2023-04-25T10:07:07;9.50;99.90
48988;DHT22;34799;51.440;-2.534;2023-04-25T10:09:39;10.20;99.90
48988;DHT22;34799;51.440;-2.534;2023-04-25T10:12:07;9.60;99.90
48988;DHT22;34799;51.440;-2.534;2023-04-25T10:14:34;9.80;99.90
48988;DHT22;34799;51.440;-2.534;2023-04-25T10:17:02;9.80;99.90
48988;DHT22;34799;51.440;-2.534;2023-04-25T10:19:30;10.70;99.90
48988;DHT22;34799;51.440;-2.534;2023-04-25T10:22:10;9.90;99.90
48988;DHT22;34799;51.440;-2.534;2023-04-25T10:24:38;10.00;99.90
48988;DHT22;34799;51.440;-2.534;2023-04-25T10:27:06;10.00;99.90
48988;DHT22;34799;51.440;-2.534;2023-04-25T10:29:35;10.30;99.90
48988;DHT22;34799;51.440;-2.534;2023-04-25T10:32:03;10.00;99.90
48988;DHT22;34799;51.440;-2.534;2023-04-25T10:34:41;10.00;99.80
48988;DHT22;34799;51.440;-2.534;2023-04-25T10:37:09;10.00;99.10
48988;DHT22;34799;51.440;-2.534;2023-04-25T10:39:40;10.10;99.80
48988;DHT22;34799;51.440;-2.534;2023-04-25T10:42:08;10.20;99.50
48988;DHT22;34799;51.440;-2.534;2023-04-25T10:44:37;10.30;99.90
48988;DHT22;34799;51.440;-2.534;2023-04-25T10:47:07;10.90;99.30
48988;DHT22;34799;51.440;-2.534;2023-04-25T10:49:41;10.50;99.70
48988;DHT22;34799;51.440;-2.534;2023-04-25T10:52:16;10.60;99.40
48988;DHT22;34799;51.440;-2.534;2023-04-25T10:54:47;10.60;99.20
48988;DHT22;34799;51.440;-2.534;2023-04-25T10:57:31;10.60;99.50
48988;DHT22;34799;51.440;-2.534;2023-04-25T11:05:26;11.00;98.70
48988;DHT22;34799;51.440;-2.534;2023-04-25T11:07:58;10.50;98.90
48988;DHT22;34799;51.440;-2.534;2023-04-25T11:10:33;11.30;99.90
48988;DHT22;34799;51.440;-2.534;2023-04-25T11:13:02;11.10;99.20
48988;DHT22;34799;51.440;-2.534;2023-04-25T11:15:29;12.30;99.00
48988;DHT22;34799;51.440;-2.534;2023-04-25T11:17:56;11.40;98.20
48988;DHT22;34799;51.440;-2.534;2023-04-25T11:20:25;11.60;97.30
48988;DHT22;34799;51.440;-2.534;2023-04-25T11:22:57;12.00;98.50
48988;DHT22;34799;51.440;-2.534;2023-04-25T11:25:28;11.80;97.70
48988;DHT22;34799;51.440;-2.534;2023-04-25T11:27:57;11.90;96.90
48988;DHT22;34799;51.440;-2.534;2023-04-25T11:30:26;11.90;96.80
48988;DHT22;34799;51.440;-2.534;2023-04-25T11:32:53;12.10;97.40
48988;DHT22;34799;51.440;-2.534;2023-04-25T11:35:22;12.10;96.50
48988;DHT22;34799;51.440;-2.534;2023-04-25T11:37:49;12.10;96.70
48988;DHT22;34799;51.440;-2.534;2023-04-25T11:40:17;12.70;97.80
48988;DHT22;34799;51.440;-2.534;2023-04-25T11:42:46;12.30;96.70
48988;DHT22;34799;51.440;-2.534;2023-04-25T11:45:16;12.30;97.20
48988;DHT22;34799;51.440;-2.534;2023-04-25T11:47:43;12.30;97.10
48988;DHT22;34799;51.440;-2.534;2023-04-25T11:50:10;12.50;96.90
48988;DHT22;34799;51.440;-2.534;2023-04-25T11:52:45;12.50;96.60
48988;DHT22;34799;51.440;-2.534;2023-04-25T11:55:20;12.40;96.10
48988;DHT22;34799;51.440;-2.534;2023-04-25T11:57:48;12.50;96.00
48988;DHT22;34799;51.440;-2.534;2023-04-25T12:00:21;12.60;96.60
48988;DHT22;34799;51.440;-2.534;2023-04-25T12:02:53;12.60;96.80
48988;DHT22;34799;51.440;-2.534;2023-04-25T12:05:27;12.60;95.80
48988;DHT22;34799;51.440;-2.534;2023-04-25T12:07:57;12.50;96.10
48988;DHT22;34799;51.440;-2.534;2023-04-25T12:10:25;12.50;96.30
48988;DHT22;34799;51.440;-2.534;2023-04-25T12:12:52;12.20;96.80
48988;DHT22;34799;51.440;-2.534;2023-04-25T12:15:25;12.20;96.10
48988;DHT22;34799;51.440;-2.534;2023-04-25T12:17:53;12.50;95.90
48988;DHT22;34799;51.440;-2.534;2023-04-25T12:20:24;12.90;95.20
48988;DHT22;34799;51.440;-2.534;2023-04-25T12:22:52;13.20;95.40
48988;DHT22;34799;51.440;-2.534;2023-04-25T12:25:38;13.40;95.10
48988;DHT22;34799;51.440;-2.534;2023-04-25T12:28:17;13.50;95.60
48988;DHT22;34799;51.440;-2.534;2023-04-25T12:31:06;13.30;94.90
48988;DHT22;34799;51.440;-2.534;2023-04-25T12:33:37;13.40;95.10
48988;DHT22;34799;51.440;-2.534;2023-04-25T12:36:06;13.50;95.00
48988;DHT22;34799;51.440;-2.534;2023-04-25T12:38:40;13.60;95.00
48988;DHT22;34799;51.440;-2.534;2023-04-25T12:41:09;13.70;94.40
48988;DHT22;34799;51.440;-2.534;2023-04-25T12:43:36;13.80;94.60
48988;DHT22;34799;51.440;-2.534;2023-04-25T12:46:03;13.70;94.40
48988;DHT22;34799;51.440;-2.534;2023-04-25T12:48:30;13.70;94.90
48988;DHT22;34799;51.440;-2.534;2023-04-25T12:50:57;13.70;94.70
48988;DHT22;34799;51.440;-2.534;2023-04-25T12:53:24;13.60;95.10
48988;DHT22;34799;51.440;-2.534;2023-04-25T12:55:51;13.60;94.50
48988;DHT22;34799;51.440;-2.534;2023-04-25T12:58:19;13.60;95.00
48988;DHT22;34799;51.440;-2.534;2023-04-25T13:00:47;13.60;95.10
48988;DHT22;34799;51.440;-2.534;2023-04-25T13:03:15;13.70;94.20
48988;DHT22;34799;51.440;-2.534;2023-04-25T13:05:42;13.90;94.10
48988;DHT22;34799;51.440;-2.534;2023-04-25T13:08:09;14.20;94.10
48988;DHT22;34799;51.440;-2.534;2023-04-25T13:10:36;14.40;94.60
48988;DHT22;34799;51.440;-2.534;2023-04-25T13:13:07;14.70;94.80
48988;DHT22;34799;51.440;-2.534;2023-04-25T13:15:35;14.80;93.90
48988;DHT22;34799;51.440;-2.534;2023-04-25T13:18:03;14.60;94.00
48988;DHT22;34799;51.440;-2.534;2023-04-25T13:20:32;14.40;93.50
48988;DHT22;34799;51.440;-2.534;2023-04-25T13:23:00;14.30;93.80
48988;DHT22;34799;51.440;-2.534;2023-04-25T13:25:28;14.30;93.60
48988;DHT22;34799;51.440;-2.534;2023-04-25T13:27:55;14.30;93.80
48988;DHT22;34799;51.440;-2.534;2023-04-25T13:30:22;14.30;93.90
48988;DHT22;34799;51.440;-2.534;2023-04-25T13:32:49;14.20;95.60
48988;DHT22;34799;51.440;-2.534;2023-04-25T13:35:17;14.20;96.60
48988;DHT22;34799;51.440;-2.534;2023-04-25T13:37:44;14.20;93.80
48988;DHT22;34799;51.440;-2.534;2023-04-25T13:40:11;13.90;93.50
48988;DHT22;34799;51.440;-2.534;2023-04-25T13:42:40;13.70;93.60
48988;DHT22;34799;51.440;-2.534;2023-04-25T13:45:07;13.60;93.40
48988;DHT22;34799;51.440;-2.534;2023-04-25T13:47:34;13.50;94.20
48988;DHT22;34799;51.440;-2.534;2023-04-25T13:50:03;13.80;93.90
48988;DHT22;34799;51.440;-2.534;2023-04-25T13:52:30;13.90;94.10
48988;DHT22;34799;51.440;-2.534;2023-04-25T13:54:59;14.30;94.00
48988;DHT22;34799;51.440;-2.534;2023-04-25T13:57:27;15.00;92.80
48988;DHT22;34799;51.440;-2.534;2023-04-25T13:59:54;14.90;92.50
48988;DHT22;34799;51.440;-2.534;2023-04-25T14:02:21;15.00;92.90
48988;DHT22;34799;51.440;-2.534;2023-04-25T14:04:48;15.30;93.00
48988;DHT22;34799;51.440;-2.534;2023-04-25T14:07:16;15.80;92.70
48988;DHT22;34799;51.440;-2.534;2023-04-25T14:09:43;16.00;92.60
48988;DHT22;34799;51.440;-2.534;2023-04-25T14:12:12;16.20;91.90
48988;DHT22;34799;51.440;-2.534;2023-04-25T14:14:39;16.30;91.70
48988;DHT22;34799;51.440;-2.534;2023-04-25T14:17:06;16.00;91.70
48988;DHT22;34799;51.440;-2.534;2023-04-25T14:19:33;15.60;91.70
48988;DHT22;34799;51.440;-2.534;2023-04-25T14:22:00;15.40;91.70
48988;DHT22;34799;51.440;-2.534;2023-04-25T14:24:27;15.10;92.10
48988;DHT22;34799;51.440;-2.534;2023-04-25T14:26:54;14.90;92.20
48988;DHT22;34799;51.440;-2.534;2023-04-25T14:29:24;14.60;92.60
48988;DHT22;34799;51.440;-2.534;2023-04-25T14:31:51;14.30;92.70
48988;DHT22;34799;51.440;-2.534;2023-04-25T14:34:18;14.20;92.90
48988;DHT22;34799;51.440;-2.534;2023-04-25T14:36:45;14.00;93.10
48988;DHT22;34799;51.440;-2.534;2023-04-25T14:39:12;13.70;92.80
48988;DHT22;34799;51.440;-2.534;2023-04-25T14:41:40;13.70;92.70
48988;DHT22;34799;51.440;-2.534;2023-04-25T14:44:07;13.60;92.20
48988;DHT22;34799;51.440;-2.534;2023-04-25T14:46:36;13.60;92.40
48988;DHT22;34799;51.440;-2.534;2023-04-25T14:49:04;13.80;92.50
48988;DHT22;34799;51.440;-2.534;2023-04-25T14:51:31;13.80;92.70
48988;DHT22;34799;51.440;-2.534;2023-04-25T14:53:58;14.00;92.60
48988;DHT22;34799;51.440;-2.534;2023-04-25T14:56:25;14.10;92.20
48988;DHT22;34799;51.440;-2.534;2023-04-25T14:58:52;14.20;92.30
48988;DHT22;34799;51.440;-2.534;2023-04-25T15:01:19;14.30;92.70
48988;DHT22;34799;51.440;-2.534;2023-04-25T15:03:48;14.50;92.90
48988;DHT22;34799;51.440;-2.534;2023-04-25T15:06:16;14.80;91.40
48988;DHT22;34799;51.440;-2.534;2023-04-25T15:08:43;15.20;91.80
48988;DHT22;34799;51.440;-2.534;2023-04-25T15:11:10;15.60;91.80
48988;DHT22;34799;51.440;-2.534;2023-04-25T15:13:37;16.00;90.70
48988;DHT22;34799;51.440;-2.534;2023-04-25T15:16:05;16.30;91.00
48988;DHT22;34799;51.440;-2.534;2023-04-25T15:18:32;16.50;90.80
48988;DHT22;34799;51.440;-2.534;2023-04-25T15:21:01;16.60;90.50
48988;DHT22;34799;51.440;-2.534;2023-04-25T15:23:28;17.00;89.90
48988;DHT22;34799;51.440;-2.534;2023-04-25T15:25:55;17.10;90.40
48988;DHT22;34799;51.440;-2.534;2023-04-25T15:28:22;17.00;90.70
48988;DHT22;34799;51.440;-2.534;2023-04-25T15:30:49;17.00;91.00
48988;DHT22;34799;51.440;-2.534;2023-04-25T15:33:17;17.10;91.20
48988;DHT22;34799;51.440;-2.534;2023-04-25T15:35:44;17.10;90.60
48988;DHT22;34799;51.440;-2.534;2023-04-25T15:38:13;17.10;90.20
48988;DHT22;34799;51.440;-2.534;2023-04-25T15:40:40;16.90;90.10
48988;DHT22;34799;51.440;-2.534;2023-04-25T15:43:07;16.80;90.00
48988;DHT22;34799;51.440;-2.534;2023-04-25T15:45:42;16.50;90.00
48988;DHT22;34799;51.440;-2.534;2023-04-25T15:48:09;16.20;90.20
48988;DHT22;34799;51.440;-2.534;2023-04-25T15:50:36;15.80;90.40
48988;DHT22;34799;51.440;-2.534;2023-04-25T15:53:04;15.70;90.40